sensor_id;sensor_type;location;lat;lon;timestamp;pressure;altitude;pressure_sealevel;temperature;humidity
6387;BME280;3226;42.162;24.756;2023-03-23T00:01:23;99669.38;;;7.63;100.00
6387;BME280;3226;42.162;24.756;2023-03-23T00:03:54;99699.69;;;8.15;100.00
6387;BME280;3226;42.162;24.756;2023-03-23T00:06:24;99699.41;;;8.31;100.00
6387;BME280;3226;42.162;24.756;2023-03-23T00:08:53;99685.25;;;8.22;100.00
6387;BME280;3226;42.162;24.756;2023-03-23T00:11:26;99693.47;;;8.29;100.00
6387;BME280;3226;42.162;24.756;2023-03-23T00:13:56;99692.38;;;8.20;100.00
6387;BME280;3226;42.162;24.756;2023-03-23T00:16:28;99688.03;;;8.07;100.00
6387;BME280;3226;42.162;24.756;2023-03-23T00:18:59;99695.59;;;7.99;100.00
6387;BME280;3226;42.162;24.756;2023-03-23T00:21:28;99702.16;;;7.92;100.00
6387;BME280;3226;42.162;24.756;2023-03-23T00:24:01;99699.16;;;7.85;100.00
6387;BME280;3226;42.162;24.756;2023-03-23T00:26:29;99696.66;;;7.84;100.00
6387;BME280;3226;42.162;24.756;2023-03-23T00:28:59;99687.59;;;7.76;100.00
6387;BME280;3226;42.162;24.756;2023-03-23T00:31:27;99696.16;;;7.78;100.00
6387;BME280;3226;42.162;24.756;2023-03-23T00:34:00;99702.72;;;7.84;100.00
6387;BME280;3226;42.162;24.756;2023-03-23T00:36:29;99694.53;;;7.89;100.00
6387;BME280;3226;42.162;24.756;2023-03-23T00:38:56;99693.00;;;7.86;100.00
6387;BME280;3226;42.162;24.756;2023-03-23T00:41:25;99689.97;;;7.92;100.00
6387;BME280;3226;42.162;24.756;2023-03-23T00:43:54;99691.59;;;7.69;100.00
6387;BME280;3226;42.162;24.756;2023-03-23T00:46:22;99682.41;;;8.01;100.00
6387;BME280;3226;42.162;24.756;2023-03-23T00:48:49;99686.19;;;7.96;100.00
6387;BME280;3226;42.162;24.756;2023-03-23T00:51:18;99682.22;;;7.91;100.00
6387;BME280;3226;42.162;24.756;2023-03-23T00:53:45;99684.47;;;7.84;100.00
6387;BME280;3226;42.162;24.756;2023-03-23T00:56:13;99683.56;;;7.72;100.00
6387;BME280;3226;42.162;24.756;2023-03-23T00:58:40;99684.19;;;7.63;100.00
6387;BME280;3226;42.162;24.756;2023-03-23T01:01:07;99687.75;;;7.49;100.00
6387;BME280;3226;42.162;24.756;2023-03-23T01:03:35;99660.16;;;7.33;100.00
6387;BME280;3226;42.162;24.756;2023-03-23T01:06:07;99683.47;;;7.61;100.00
6387;BME280;3226;42.162;24.756;2023-03-23T01:08:39;99681.91;;;7.45;100.00
6387;BME280;3226;42.162;24.756;2023-03-23T01:11:12;99690.81;;;7.30;100.00
6387;BME280;3226;42.162;24.756;2023-03-23T01:13:40;99692.13;;;7.22;100.00
6387;BME280;3226;42.162;24.756;2023-03-23T01:16:07;99681.00;;;7.07;100.00
6387;BME280;3226;42.162;24.756;2023-03-23T01:18:34;99677.84;;;7.02;100.00
6387;BME280;3226;42.162;24.756;2023-03-23T01:21:04;99693.69;;;7.12;100.00
6387;BME280;3226;42.162;24.756;2023-03-23T01:23:32;99698.81;;;7.14;100.00
6387;BME280;3226;42.162;24.756;2023-03-23T01:26:03;99689.94;;;7.16;100.00
6387;BME280;3226;42.162;24.756;2023-03-23T01:28:31;99695.66;;;7.21;100.00
6387;BME280;3226;42.162;24.756;2023-03-23T01:31:02;99691.09;;;7.12;100.00
6387;BME280;3226;42.162;24.756;2023-03-23T01:33:29;99657.34;;;6.85;100.00
6387;BME280;3226;42.162;24.756;2023-03-23T01:35:56;99681.09;;;6.93;100.00
6387;BME280;3226;42.162;24.756;2023-03-23T01:38:23;99700.03;;;6.95;100.00
6387;BME280;3226;42.162;24.756;2023-03-23T01:40:50;99699.03;;;7.11;100.00
6387;BME280;3226;42.162;24.756;2023-03-23T01:43:18;99699.13;;;7.22;100.00
6387;BME280;3226;42.162;24.756;2023-03-23T01:45:45;99702.16;;;7.29;100.00
6387;BME280;3226;42.162;24.756;2023-03-23T01:48:16;99697.75;;;7.16;100.00
6387;BME280;3226;42.162;24.756;2023-03-23T01:50:50;99700.25;;;7.05;100.00
6387;BME280;3226;42.162;24.756;2023-03-23T01:53:18;99695.59;;;7.23;100.00
6387;BME280;3226;42.162;24.756;2023-03-23T01:55:49;99699.84;;;7.37;100.00
6387;BME280;3226;42.162;24.756;2023-03-23T01:58:21;99687.34;;;7.55;100.00
6387;BME280;3226;42.162;24.756;2023-03-23T02:00:52;99676.06;;;7.55;100.00
6387;BME280;3226;42.162;24.756;2023-03-23T02:03:19;99686.97;;;7.73;100.00
6387;BME280;3226;42.162;24.756;2023-03-23T02:05:49;99684.59;;;7.70;100.00
6387;BME280;3226;42.162;24.756;2023-03-23T02:08:18;99679.28;;;7.71;100.00
6387;BME280;3226;42.162;24.756;2023-03-23T02:10:45;99678.09;;;7.88;100.00
6387;BME280;3226;42.162;24.756;2023-03-23T02:13:12;99676.66;;;7.84;100.00
6387;BME280;3226;42.162;24.756;2023-03-23T02:15:47;99685.88;;;7.51;100.00
6387;BME280;3226;42.162;24.756;2023-03-23T02:18:28;99693.34;;;7.56;100.00
6387;BME280;3226;42.162;24.756;2023-03-23T02:26:58;99702.88;;;7.44;100.00
6387;BME280;3226;42.162;24.756;2023-03-23T02:32:44;99699.56;;;7.29;100.00
6387;BME280;3226;42.162;24.756;2023-03-23T02:35:22;99703.91;;;7.15;100.00
6387;BME280;3226;42.162;24.756;2023-03-23T02:37:54;99694.84;;;7.21;100.00
6387;BME280;3226;42.162;24.756;2023-03-23T02:40:27;99697.75;;;7.16;100.00
6387;BME280;3226;42.162;24.756;2023-03-23T02:42:57;99696.09;;;7.28;100.00
6387;BME280;3226;42.162;24.756;2023-03-23T02:45:27;99699.22;;;7.33;100.00
6387;BME280;3226;42.162;24.756;2023-03-23T02:47:56;99697.03;;;7.14;100.00
6387;BME280;3226;42.162;24.756;2023-03-23T02:50:27;99702.25;;;7.27;100.00
6387;BME280;3226;42.162;24.756;2023-03-23T02:52:55;99701.53;;;7.38;100.00
6387;BME280;3226;42.162;24.756;2023-03-23T02:55:24;99702.75;;;7.45;100.00
6387;BME280;3226;42.162;24.756;2023-03-23T02:57:54;99698.69;;;7.54;100.00
6387;BME280;3226;42.162;24.756;2023-03-23T03:00:22;99701.91;;;7.58;100.00
6387;BME280;3226;42.162;24.756;2023-03-23T03:02:50;99703.28;;;7.37;100.00
6387;BME280;3226;42.162;24.756;2023-03-23T03:05:30;99710.06;;;7.40;100.00
6387;BME280;3226;42.162;24.756;2023-03-23T03:08:08;99717.66;;;7.17;100.00
6387;BME280;3226;42.162;24.756;2023-03-23T03:10:43;99712.75;;;7.00;100.00
6387;BME280;3226;42.162;24.756;2023-03-23T03:13:21;99717.66;;;7.17;100.00
6387;BME280;3226;42.162;24.756;2023-03-23T03:15:55;99720.59;;;7.26;100.00
6387;BME280;3226;42.162;24.756;2023-03-23T03:18:26;99704.66;;;7.30;100.00
6387;BME280;3226;42.162;24.756;2023-03-23T03:21:00;99725.06;;;7.23;100.00
6387;BME280;3226;42.162;24.756;2023-03-23T03:23:30;99727.47;;;7.14;100.00
6387;BME280;3226;42.162;24.756;2023-03-23T03:25:59;99729.38;;;6.84;100.00
6387;BME280;3226;42.162;24.756;2023-03-23T03:28:27;99726.06;;;6.95;100.00
6387;BME280;3226;42.162;24.756;2023-03-23T03:30:56;99709.06;;;6.89;100.00
6387;BME280;3226;42.162;24.756;2023-03-23T03:33:27;99734.59;;;6.84;100.00
6387;BME280;3226;42.162;24.756;2023-03-23T03:36:00;99739.22;;;6.66;100.00
6387;BME280;3226;42.162;24.756;2023-03-23T03:38:28;99735.09;;;6.49;100.00
6387;BME280;3226;42.162;24.756;2023-03-23T03:40:56;99742.84;;;6.50;100.00
6387;BME280;3226;42.162;24.756;2023-03-23T03:43:23;99746.75;;;6.43;100.00
6387;BME280;3226;42.162;24.756;2023-03-23T03:45:50;99743.63;;;6.65;100.00
6387;BME280;3226;42.162;24.756;2023-03-23T03:48:17;99730.19;;;6.72;100.00
6387;BME280;3226;42.162;24.756;2023-03-23T03:50:43;99735.81;;;6.65;100.00
6387;BME280;3226;42.162;24.756;2023-03-23T03:53:12;99740.34;;;6.62;100.00
6387;BME280;3226;42.162;24.756;2023-03-23T03:55:39;99742.19;;;6.47;100.00
6387;BME280;3226;42.162;24.756;2023-03-23T03:58:14;99736.78;;;6.50;100.00
6387;BME280;3226;42.162;24.756;2023-03-23T04:00:40;99733.53;;;6.74;100.00
6387;BME280;3226;42.162;24.756;2023-03-23T04:03:07;99728.59;;;6.56;100.00
6387;BME280;3226;42.162;24.756;2023-03-23T04:05:35;99731.19;;;6.56;100.00
6387;BME280;3226;42.162;24.756;2023-03-23T04:08:03;99740.22;;;6.50;100.00
6387;BME280;3226;42.162;24.756;2023-03-23T04:10:31;99721.56;;;6.44;100.00
6387;BME280;3226;42.162;24.756;2023-03-23T04:12:59;99734.97;;;6.38;100.00
6387;BME280;3226;42.162;24.756;2023-03-23T04:15:26;99730.91;;;6.33;100.00
6387;BME280;3226;42.162;24.756;2023-03-23T04:17:53;99714.75;;;6.28;100.00
6387;BME280;3226;42.162;24.756;2023-03-23T04:20:22;99741.22;;;6.62;100.00
6387;BME280;3226;42.162;24.756;2023-03-23T04:22:49;99732.47;;;6.63;100.00
6387;BME280;3226;42.162;24.756;2023-03-23T04:25:18;99743.53;;;6.80;100.00
6387;BME280;3226;42.162;24.756;2023-03-23T04:27:48;99730.22;;;6.85;100.00
6387;BME280;3226;42.162;24.756;2023-03-23T04:30:18;99742.91;;;6.89;100.00
6387;BME280;3226;42.162;24.756;2023-03-23T04:32:46;99745.00;;;6.84;100.00
6387;BME280;3226;42.162;24.756;2023-03-23T04:35:16;99744.19;;;6.84;100.00
6387;BME280;3226;42.162;24.756;2023-03-23T04:37:44;99744.16;;;6.71;100.00
6387;BME280;3226;42.162;24.756;2023-03-23T04:40:12;99745.75;;;6.59;100.00
6387;BME280;3226;42.162;24.756;2023-03-23T04:42:40;99737.06;;;6.73;100.00
6387;BME280;3226;42.162;24.756;2023-03-23T04:45:14;99743.44;;;6.82;100.00
6387;BME280;3226;42.162;24.756;2023-03-23T04:47:42;99754.50;;;6.58;100.00
6387;BME280;3226;42.162;24.756;2023-03-23T04:50:20;99746.47;;;6.75;100.00
6387;BME280;3226;42.162;24.756;2023-03-23T04:52:49;99745.75;;;6.99;100.00
6387;BME280;3226;42.162;24.756;2023-03-23T04:55:17;99758.22;;;6.81;100.00
6387;BME280;3226;42.162;24.756;2023-03-23T04:57:44;99757.25;;;6.69;100.00
6387;BME280;3226;42.162;24.756;2023-03-23T05:00:14;99750.16;;;6.99;100.00
6387;BME280;3226;42.162;24.756;2023-03-23T05:02:42;99745.59;;;6.75;100.00
6387;BME280;3226;42.162;24.756;2023-03-23T05:05:11;99748.63;;;6.69;100.00
6387;BME280;3226;42.162;24.756;2023-03-23T05:07:39;99734.19;;;6.77;100.00
6387;BME280;3226;42.162;24.756;2023-03-23T05:10:08;99753.84;;;6.82;100.00
6387;BME280;3226;42.162;24.756;2023-03-23T05:12:36;99740.81;;;6.69;100.00
6387;BME280;3226;42.162;24.756;2023-03-23T05:15:04;99750.94;;;6.86;100.00
6387;BME280;3226;42.162;24.756;2023-03-23T05:17:33;99753.91;;;6.67;100.00
6387;BME280;3226;42.162;24.756;2023-03-23T05:20:02;99748.13;;;6.89;100.00
6387;BME280;3226;42.162;24.756;2023-03-23T05:22:31;99757.44;;;6.93;100.00
6387;BME280;3226;42.162;24.756;2023-03-23T05:24:58;99762.06;;;6.75;100.00
6387;BME280;3226;42.162;24.756;2023-03-23T05:27:28;99761.63;;;6.69;100.00
6387;BME280;3226;42.162;24.756;2023-03-23T05:29:56;99760.34;;;6.61;100.00
6387;BME280;3226;42.162;24.756;2023-03-23T05:32:23;99754.75;;;6.40;100.00
6387;BME280;3226;42.162;24.756;2023-03-23T05:34:56;99768.69;;;6.39;100.00
6387;BME280;3226;42.162;24.756;2023-03-23T05:37:24;99775.47;;;6.42;100.00
6387;BME280;3226;42.162;24.756;2023-03-23T05:39:52;99765.56;;;6.61;100.00
6387;BME280;3226;42.162;24.756;2023-03-23T05:42:21;99777.84;;;6.59;100.00
6387;BME280;3226;42.162;24.756;2023-03-23T05:44:48;99780.31;;;6.61;100.00
6387;BME280;3226;42.162;24.756;2023-03-23T05:47:15;99780.97;;;6.64;100.00
6387;BME280;3226;42.162;24.756;2023-03-23T05:49:42;99783.63;;;6.77;100.00
6387;BME280;3226;42.162;24.756;2023-03-23T05:52:11;99784.59;;;6.89;100.00
6387;BME280;3226;42.162;24.756;2023-03-23T05:54:37;99789.66;;;6.78;100.00
6387;BME280;3226;42.162;24.756;2023-03-23T05:57:04;99794.25;;;6.87;100.00
6387;BME280;3226;42.162;24.756;2023-03-23T05:59:32;99755.97;;;6.62;100.00
6387;BME280;3226;42.162;24.756;2023-03-23T06:01:59;99802.06;;;6.74;100.00
6387;BME280;3226;42.162;24.756;2023-03-23T06:04:26;99797.88;;;6.72;100.00
6387;BME280;3226;42.162;24.756;2023-03-23T06:06:53;99800.13;;;6.91;100.00
6387;BME280;3226;42.162;24.756;2023-03-23T06:09:21;99804.50;;;6.90;100.00
6387;BME280;3226;42.162;24.756;2023-03-23T06:11:50;99812.13;;;7.06;100.00
6387;BME280;3226;42.162;24.756;2023-03-23T06:14:17;99806.81;;;7.08;100.00
6387;BME280;3226;42.162;24.756;2023-03-23T06:16:44;99817.91;;;7.24;100.00
6387;BME280;3226;42.162;24.756;2023-03-23T06:19:11;99806.69;;;7.37;100.00
6387;BME280;3226;42.162;24.756;2023-03-23T06:21:38;99803.88;;;7.53;100.00
6387;BME280;3226;42.162;24.756;2023-03-23T06:24:05;99799.91;;;7.47;100.00
6387;BME280;3226;42.162;24.756;2023-03-23T06:26:35;99801.78;;;7.58;100.00
6387;BME280;3226;42.162;24.756;2023-03-23T06:29:03;99809.31;;;7.63;100.00
6387;BME280;3226;42.162;24.756;2023-03-23T06:31:37;99809.84;;;7.81;100.00
6387;BME280;3226;42.162;24.756;2023-03-23T06:34:05;99811.50;;;7.82;100.00
6387;BME280;3226;42.162;24.756;2023-03-23T06:36:33;99805.13;;;7.73;100.00
6387;BME280;3226;42.162;24.756;2023-03-23T06:39:00;99818.16;;;7.86;100.00
6387;BME280;3226;42.162;24.756;2023-03-23T06:41:31;99825.34;;;7.95;100.00
6387;BME280;3226;42.162;24.756;2023-03-23T06:43:59;99817.22;;;8.00;100.00
6387;BME280;3226;42.162;24.756;2023-03-23T06:46:27;99821.41;;;8.53;100.00
6387;BME280;3226;42.162;24.756;2023-03-23T06:48:54;99818.75;;;8.66;100.00
6387;BME280;3226;42.162;24.756;2023-03-23T06:51:22;99821.28;;;9.03;100.00
6387;BME280;3226;42.162;24.756;2023-03-23T06:53:49;99822.34;;;9.01;100.00
6387;BME280;3226;42.162;24.756;2023-03-23T06:56:16;99798.41;;;8.58;100.00
6387;BME280;3226;42.162;24.756;2023-03-23T06:58:43;99824.75;;;8.79;100.00
6387;BME280;3226;42.162;24.756;2023-03-23T07:01:12;99837.69;;;8.81;100.00
6387;BME280;3226;42.162;24.756;2023-03-23T07:03:40;99830.50;;;8.85;100.00
6387;BME280;3226;42.162;24.756;2023-03-23T07:06:08;99836.03;;;8.56;100.00
6387;BME280;3226;42.162;24.756;2023-03-23T07:08:35;99824.72;;;8.42;100.00
6387;BME280;3226;42.162;24.756;2023-03-23T07:11:04;99835.59;;;8.49;100.00
6387;BME280;3226;42.162;24.756;2023-03-23T07:13:31;99818.41;;;8.33;100.00
6387;BME280;3226;42.162;24.756;2023-03-23T07:15:58;99840.63;;;8.26;100.00
6387;BME280;3226;42.162;24.756;2023-03-23T07:18:26;99838.19;;;8.62;100.00
6387;BME280;3226;42.162;24.756;2023-03-23T07:20:53;99839.91;;;8.74;100.00
6387;BME280;3226;42.162;24.756;2023-03-23T07:23:20;99819.41;;;9.05;100.00
6387;BME280;3226;42.162;24.756;2023-03-23T07:25:47;99838.66;;;9.40;99.10
6387;BME280;3226;42.162;24.756;2023-03-23T07:28:14;99844.66;;;10.33;95.05
6387;BME280;3226;42.162;24.756;2023-03-23T07:30:41;99841.13;;;10.23;92.89
6387;BME280;3226;42.162;24.756;2023-03-23T07:33:09;99835.50;;;11.27;88.33
6387;BME280;3226;42.162;24.756;2023-03-23T07:35:37;99835.19;;;11.63;85.16
6387;BME280;3226;42.162;24.756;2023-03-23T07:38:06;99811.50;;;11.74;86.25
6387;BME280;3226;42.162;24.756;2023-03-23T07:40:34;99835.16;;;12.46;81.68
6387;BME280;3226;42.162;24.756;2023-03-23T07:43:02;99842.44;;;12.42;79.78
6387;BME280;3226;42.162;24.756;2023-03-23T07:45:30;99842.84;;;12.98;77.14
6387;BME280;3226;42.162;24.756;2023-03-23T07:47:57;99834.88;;;12.49;79.57
6387;BME280;3226;42.162;24.756;2023-03-23T07:50:24;99836.84;;;12.57;80.12
6387;BME280;3226;42.162;24.756;2023-03-23T07:52:53;99821.78;;;12.79;78.33
6387;BME280;3226;42.162;24.756;2023-03-23T07:55:21;99839.13;;;12.40;80.72
6387;BME280;3226;42.162;24.756;2023-03-23T07:57:50;99842.34;;;12.44;82.74
6387;BME280;3226;42.162;24.756;2023-03-23T08:00:19;99833.38;;;13.35;76.64
6387;BME280;3226;42.162;24.756;2023-03-23T08:02:50;99840.88;;;14.35;73.51
6387;BME280;3226;42.162;24.756;2023-03-23T08:05:17;99834.34;;;14.11;71.94
6387;BME280;3226;42.162;24.756;2023-03-23T08:07:44;99836.34;;;13.90;74.63
6387;BME280;3226;42.162;24.756;2023-03-23T08:10:14;99811.13;;;14.43;72.75
6387;BME280;3226;42.162;24.756;2023-03-23T08:12:42;99840.75;;;14.83;68.25
6387;BME280;3226;42.162;24.756;2023-03-23T08:15:11;99837.44;;;14.53;67.06
6387;BME280;3226;42.162;24.756;2023-03-23T08:17:40;99833.47;;;14.67;66.20
6387;BME280;3226;42.162;24.756;2023-03-23T08:20:09;99842.66;;;14.63;67.86
6387;BME280;3226;42.162;24.756;2023-03-23T08:22:39;99810.31;;;14.88;67.13
6387;BME280;3226;42.162;24.756;2023-03-23T08:25:08;99827.31;;;15.12;61.64
6387;BME280;3226;42.162;24.756;2023-03-23T08:27:38;99824.63;;;15.04;64.33
6387;BME280;3226;42.162;24.756;2023-03-23T08:30:10;99830.88;;;15.21;62.72
6387;BME280;3226;42.162;24.756;2023-03-23T08:32:38;99832.84;;;14.83;60.43
6387;BME280;3226;42.162;24.756;2023-03-23T08:35:06;99834.19;;;14.87;62.48
6387;BME280;3226;42.162;24.756;2023-03-23T08:37:34;99802.81;;;14.66;63.16
6387;BME280;3226;42.162;24.756;2023-03-23T08:40:02;99826.44;;;15.48;61.19
6387;BME280;3226;42.162;24.756;2023-03-23T08:42:34;99815.91;;;15.83;58.06
6387;BME280;3226;42.162;24.756;2023-03-23T08:45:03;99826.00;;;16.14;56.81
6387;BME280;3226;42.162;24.756;2023-03-23T08:47:30;99824.09;;;17.09;54.98
6387;BME280;3226;42.162;24.756;2023-03-23T08:49:57;99827.63;;;16.58;54.24
6387;BME280;3226;42.162;24.756;2023-03-23T08:52:24;99823.78;;;16.44;53.49
6387;BME280;3226;42.162;24.756;2023-03-23T08:54:51;99832.13;;;16.82;54.32
6387;BME280;3226;42.162;24.756;2023-03-23T08:57:17;99828.94;;;16.45;50.71
6387;BME280;3226;42.162;24.756;2023-03-23T08:59:44;99835.31;;;15.92;52.74
6387;BME280;3226;42.162;24.756;2023-03-23T09:02:13;99835.75;;;15.87;52.93
6387;BME280;3226;42.162;24.756;2023-03-23T09:04:40;99839.97;;;15.98;52.35
6387;BME280;3226;42.162;24.756;2023-03-23T09:07:08;99836.91;;;16.62;51.97
6387;BME280;3226;42.162;24.756;2023-03-23T09:09:36;99832.00;;;17.50;49.51
6387;BME280;3226;42.162;24.756;2023-03-23T09:12:05;99829.34;;;18.55;45.88
6387;BME280;3226;42.162;24.756;2023-03-23T09:14:32;99827.03;;;17.47;48.58
6387;BME280;3226;42.162;24.756;2023-03-23T09:16:59;99833.72;;;16.58;49.85
6387;BME280;3226;42.162;24.756;2023-03-23T09:19:27;99823.59;;;16.37;50.64
6387;BME280;3226;42.162;24.756;2023-03-23T09:21:54;99832.34;;;17.05;49.62
6387;BME280;3226;42.162;24.756;2023-03-23T09:24:21;99825.75;;;17.01;50.23
6387;BME280;3226;42.162;24.756;2023-03-23T09:26:48;99824.41;;;17.05;49.56
6387;BME280;3226;42.162;24.756;2023-03-23T09:29:15;99821.75;;;16.97;50.13
6387;BME280;3226;42.162;24.756;2023-03-23T09:31:42;99824.88;;;16.16;50.63
6387;BME280;3226;42.162;24.756;2023-03-23T09:34:12;99823.34;;;16.73;50.24
6387;BME280;3226;42.162;24.756;2023-03-23T09:36:42;99821.13;;;17.20;47.87
6387;BME280;3226;42.162;24.756;2023-03-23T09:39:09;99822.56;;;16.13;49.76
6387;BME280;3226;42.162;24.756;2023-03-23T09:41:48;99823.13;;;15.99;50.44
6387;BME280;3226;42.162;24.756;2023-03-23T09:44:26;99814.44;;;15.80;52.74
6387;BME280;3226;42.162;24.756;2023-03-23T09:47:01;99779.84;;;15.57;53.16
6387;BME280;3226;42.162;24.756;2023-03-23T09:49:33;99819.50;;;15.73;52.53
6387;BME280;3226;42.162;24.756;2023-03-23T09:52:09;99814.03;;;15.40;54.17
6387;BME280;3226;42.162;24.756;2023-03-23T09:54:39;99810.88;;;15.89;52.56
6387;BME280;3226;42.162;24.756;2023-03-23T09:57:12;99806.19;;;16.18;52.15
6387;BME280;3226;42.162;24.756;2023-03-23T09:59:46;99801.53;;;16.55;49.56
6387;BME280;3226;42.162;24.756;2023-03-23T10:02:17;99797.03;;;16.39;50.75
6387;BME280;3226;42.162;24.756;2023-03-23T10:04:46;99799.25;;;17.43;47.86
6387;BME280;3226;42.162;24.756;2023-03-23T10:07:18;99784.41;;;17.25;49.49
6387;BME280;3226;42.162;24.756;2023-03-23T10:09:47;99797.78;;;17.32;44.82
6387;BME280;3226;42.162;24.756;2023-03-23T10:12:24;99800.72;;;16.71;46.46
6387;BME280;3226;42.162;24.756;2023-03-23T10:15:03;99797.38;;;16.52;47.15
6387;BME280;3226;42.162;24.756;2023-03-23T10:17:38;99797.69;;;16.32;46.98
6387;BME280;3226;42.162;24.756;2023-03-23T10:20:21;99793.72;;;15.94;46.88
6387;BME280;3226;42.162;24.756;2023-03-23T10:22:53;99796.06;;;16.05;46.59
6387;BME280;3226;42.162;24.756;2023-03-23T10:25:25;99793.16;;;15.55;48.83
6387;BME280;3226;42.162;24.756;2023-03-23T10:27:59;99786.41;;;15.87;47.91
6387;BME280;3226;42.162;24.756;2023-03-23T10:30:31;99772.41;;;15.60;46.97
6387;BME280;3226;42.162;24.756;2023-03-23T10:33:03;99784.06;;;15.76;47.57
6387;BME280;3226;42.162;24.756;2023-03-23T10:35:37;99785.28;;;15.90;49.02
6387;BME280;3226;42.162;24.756;2023-03-23T10:38:10;99756.94;;;15.66;49.67
6387;BME280;3226;42.162;24.756;2023-03-23T10:40:49;99769.00;;;16.03;52.38
6387;BME280;3226;42.162;24.756;2023-03-23T10:43:17;99757.22;;;16.40;52.74
6387;BME280;3226;42.162;24.756;2023-03-23T10:45:48;99763.88;;;17.11;47.93
6387;BME280;3226;42.162;24.756;2023-03-23T10:48:20;99776.94;;;17.37;46.06
6387;BME280;3226;42.162;24.756;2023-03-23T10:50:51;99765.88;;;17.09;46.67
6387;BME280;3226;42.162;24.756;2023-03-23T10:53:26;99762.56;;;17.07;46.49
6387;BME280;3226;42.162;24.756;2023-03-23T10:55:58;99764.53;;;16.71;47.02
6387;BME280;3226;42.162;24.756;2023-03-23T10:58:26;99761.69;;;16.48;49.68
6387;BME280;3226;42.162;24.756;2023-03-23T11:00:56;99758.25;;;16.97;47.99
6387;BME280;3226;42.162;24.756;2023-03-23T11:03:27;99761.38;;;17.42;44.86
6387;BME280;3226;42.162;24.756;2023-03-23T11:05:59;99762.44;;;17.73;44.83
6387;BME280;3226;42.162;24.756;2023-03-23T11:08:33;99755.69;;;17.70;44.88
6387;BME280;3226;42.162;24.756;2023-03-23T11:11:09;99759.84;;;17.48;46.08
6387;BME280;3226;42.162;24.756;2023-03-23T11:13:39;99757.41;;;16.47;45.45
6387;BME280;3226;42.162;24.756;2023-03-23T11:16:09;99758.25;;;16.47;45.69
6387;BME280;3226;42.162;24.756;2023-03-23T11:18:37;99760.00;;;15.87;46.47
6387;BME280;3226;42.162;24.756;2023-03-23T11:21:06;99767.03;;;16.05;46.54
6387;BME280;3226;42.162;24.756;2023-03-23T11:23:37;99635.41;;;15.06;47.49
6387;BME280;3226;42.162;24.756;2023-03-23T11:26:13;99757.94;;;15.99;47.09
6387;BME280;3226;42.162;24.756;2023-03-23T11:28:44;99758.44;;;16.03;46.21
6387;BME280;3226;42.162;24.756;2023-03-23T11:31:13;99759.69;;;15.56;47.17
6387;BME280;3226;42.162;24.756;2023-03-23T11:33:48;99744.72;;;15.65;48.16
6387;BME280;3226;42.162;24.756;2023-03-23T11:36:17;99747.66;;;15.88;48.70
6387;BME280;3226;42.162;24.756;2023-03-23T11:38:46;99751.72;;;16.17;48.67
6387;BME280;3226;42.162;24.756;2023-03-23T11:41:18;99750.28;;;16.39;48.52
6387;BME280;3226;42.162;24.756;2023-03-23T11:43:46;99740.97;;;16.10;51.71
6387;BME280;3226;42.162;24.756;2023-03-23T11:46:25;99735.38;;;16.13;52.29
6387;BME280;3226;42.162;24.756;2023-03-23T11:48:58;99740.94;;;16.02;53.55
6387;BME280;3226;42.162;24.756;2023-03-23T11:51:31;99738.69;;;16.32;51.20
6387;BME280;3226;42.162;24.756;2023-03-23T11:54:09;99755.44;;;15.98;51.27
6387;BME280;3226;42.162;24.756;2023-03-23T11:56:41;99748.66;;;15.60;54.18
6387;BME280;3226;42.162;24.756;2023-03-23T11:59:11;99745.72;;;15.72;54.01
6387;BME280;3226;42.162;24.756;2023-03-23T12:01:53;99740.13;;;16.01;52.86
6387;BME280;3226;42.162;24.756;2023-03-23T12:04:37;99726.13;;;16.17;52.58
6387;BME280;3226;42.162;24.756;2023-03-23T12:07:21;99738.53;;;15.21;54.89
6387;BME280;3226;42.162;24.756;2023-03-23T12:09:58;99734.44;;;15.00;56.36
6387;BME280;3226;42.162;24.756;2023-03-23T12:12:33;99733.38;;;14.93;56.85
6387;BME280;3226;42.162;24.756;2023-03-23T12:15:08;99730.25;;;14.89;56.84
6387;BME280;3226;42.162;24.756;2023-03-23T12:17:46;99730.34;;;14.80;56.39
6387;BME280;3226;42.162;24.756;2023-03-23T12:20:23;99722.78;;;14.67;56.48
6387;BME280;3226;42.162;24.756;2023-03-23T12:23:05;99724.69;;;14.74;57.72
6387;BME280;3226;42.162;24.756;2023-03-23T12:25:48;99721.66;;;14.69;57.04
6387;BME280;3226;42.162;24.756;2023-03-23T12:28:29;99719.75;;;14.98;56.64
6387;BME280;3226;42.162;24.756;2023-03-23T12:31:03;99733.84;;;15.07;56.04
6387;BME280;3226;42.162;24.756;2023-03-23T12:33:41;99728.69;;;14.79;55.39
6387;BME280;3226;42.162;24.756;2023-03-23T12:36:20;99730.69;;;14.67;55.50
6387;BME280;3226;42.162;24.756;2023-03-23T12:38:58;99722.47;;;14.70;55.84
6387;BME280;3226;42.162;24.756;2023-03-23T12:41:36;99727.69;;;14.80;54.59
6387;BME280;3226;42.162;24.756;2023-03-23T12:44:08;99730.56;;;15.13;53.97
6387;BME280;3226;42.162;24.756;2023-03-23T12:46:47;99735.50;;;15.34;53.38
6387;BME280;3226;42.162;24.756;2023-03-23T12:49:21;99726.28;;;15.38;52.58
6387;BME280;3226;42.162;24.756;2023-03-23T12:51:53;99720.59;;;15.59;52.53
6387;BME280;3226;42.162;24.756;2023-03-23T12:54:26;99717.66;;;15.63;52.46
6387;BME280;3226;42.162;24.756;2023-03-23T12:57:00;99704.31;;;15.38;54.81
6387;BME280;3226;42.162;24.756;2023-03-23T12:59:36;99724.41;;;15.57;52.43
6387;BME280;3226;42.162;24.756;2023-03-23T13:02:13;99721.75;;;15.57;52.28
6387;BME280;3226;42.162;24.756;2023-03-23T13:04:45;99716.94;;;15.52;52.95
6387;BME280;3226;42.162;24.756;2023-03-23T13:07:18;99718.06;;;15.50;52.40
6387;BME280;3226;42.162;24.756;2023-03-23T13:09:52;99712.09;;;15.74;52.80
6387;BME280;3226;42.162;24.756;2023-03-23T13:12:22;99722.59;;;15.66;52.05
6387;BME280;3226;42.162;24.756;2023-03-23T13:14:56;99718.41;;;15.46;53.81
6387;BME280;3226;42.162;24.756;2023-03-23T13:17:35;99713.97;;;15.21;52.95
6387;BME280;3226;42.162;24.756;2023-03-23T13:20:18;99713.09;;;15.12;54.77
6387;BME280;3226;42.162;24.756;2023-03-23T13:22:51;99685.06;;;15.11;53.79
6387;BME280;3226;42.162;24.756;2023-03-23T13:25:30;99700.06;;;15.10;53.18
6387;BME280;3226;42.162;24.756;2023-03-23T13:28:04;99713.31;;;15.00;53.80
6387;BME280;3226;42.162;24.756;2023-03-23T13:30:31;99690.47;;;15.09;53.22
6387;BME280;3226;42.162;24.756;2023-03-23T13:33:03;99691.63;;;15.07;53.65
6387;BME280;3226;42.162;24.756;2023-03-23T13:35:34;99710.78;;;15.09;53.74